Terminal Aerodrome Forecast
Issued by NWS

Home | Current Version | Previous Version | Graphics & Text | Print | Product List | Glossary On
Versions: 1 2 3 4 5 6 7 8 9 10 11 12 13 14 15 16 17 18 19 20 21 22 23 24
000
FTUS42 KMHX 290533
TAFISO
TAF
KISO 290533Z 2906/3006 05003KT P6SM VCSH SCT015 OVC035
      TEMPO 2908/2911 BKN015
     FM291100 07005KT P6SM VCSH OVC020
     FM291400 10007KT 6SM SHRA OVC020
     FM291800 12008KT 5SM SHRA SCT020 OVC035
      AMD LTD TO CLD VIS AND WIND=

USA.gov is the U.S. government's official web portal to all federal, state and local government web resources and services.